Search for airport 
image banner adimage banner adimage banner ad
image banner ad

PS95 - Mazzuca

Located in Pottsville, United States

ICAO - PS95, IATA -

Data provided by Airmate  

General information

Coordinates: N40°41'10" W76°12'37"
Elevation is 810 feet MSL.
Magnetic variation is -11° East
View others Airports in Pennsylvania

Operational data

Special qualification required
Current time UTC:
Current local time:
Weather at : KHZL - Hazleton Rgnl ( 38 km )
METAR: KHZL 091235Z AUTO 28004KT 10SM CLR 07/02 A3010 RMK AO2
View NOTAMs / SUP AIP / TFR affecting this airport [VIEW]
Communications frequencies: [VIEW]

Runways:

Airport contact information

Address: Pottsville United States

Satellite view of PS95